createdAt,value
2018-04-30T00:01:55.419Z,92.10
2018-04-30T00:04:23.997Z,92.10
2018-04-30T00:06:52.405Z,92.10
2018-04-30T00:09:20.485Z,93.70
2018-04-30T00:11:50.195Z,96.80
2018-04-30T00:14:18.267Z,92.00
2018-04-30T00:16:47.369Z,92.00
2018-04-30T00:19:15.558Z,93.60
2018-04-30T00:21:44.193Z,96.50
2018-04-30T00:24:11.914Z,96.70
2018-04-30T00:26:42.891Z,96.60
2018-04-30T00:29:11.344Z,91.80
2018-04-30T00:31:42.588Z,91.80
2018-04-30T00:34:10.621Z,92.40
2018-04-30T00:36:39.717Z,93.40
2018-04-30T00:39:07.372Z,96.30
2018-04-30T00:41:37.480Z,91.60
2018-04-30T00:44:05.511Z,91.50
2018-04-30T00:46:35.951Z,91.40
2018-04-30T00:49:03.645Z,96.00
2018-04-30T00:51:34.524Z,91.60
2018-04-30T00:54:03.008Z,91.30
2018-04-30T00:56:32.441Z,91.70
2018-04-30T00:59:00.482Z,91.20
2018-04-30T01:01:29.322Z,91.70
2018-04-30T01:03:56.956Z,96.50
2018-04-30T01:06:25.594Z,97.30
2018-04-30T01:08:53.237Z,94.20
2018-04-30T01:11:22.331Z,93.20
2018-04-30T01:13:50.734Z,92.70
2018-04-30T01:16:20.920Z,93.30
2018-04-30T01:18:49.721Z,93.60
2018-04-30T01:21:18.543Z,93.90
2018-04-30T01:23:47.065Z,94.40
2018-04-30T01:26:14.735Z,98.60
2018-04-30T01:28:42.819Z,95.50
2018-04-30T01:31:11.898Z,94.00
2018-04-30T01:33:39.583Z,96.70
2018-04-30T01:36:09.699Z,94.40
2018-04-30T01:38:38.142Z,94.50
2018-04-30T01:41:06.792Z,99.20
2018-04-30T01:43:35.321Z,94.80
2018-04-30T01:46:04.369Z,94.70
2018-04-30T01:48:32.815Z,94.60
2018-04-30T01:51:00.504Z,99.40
2018-04-30T01:53:28.162Z,99.20
2018-04-30T01:55:55.843Z,99.20
2018-04-30T01:58:23.920Z,94.70
2018-04-30T02:03:22.360Z,95.10
2018-04-30T02:05:50.834Z,94.70
2018-04-30T02:08:19.259Z,94.80
2018-04-30T02:10:48.733Z,95.00
2018-04-30T02:13:16.437Z,99.40
2018-04-30T02:15:44.475Z,94.70
2018-04-30T02:18:12.935Z,94.80
2018-04-30T02:20:41.355Z,94.90
2018-04-30T02:23:09.414Z,95.40
2018-04-30T02:25:37.890Z,94.60
2018-04-30T02:28:05.599Z,98.90
2018-04-30T02:30:33.836Z,94.40
2018-04-30T02:33:01.421Z,96.50
2018-04-30T02:35:31.952Z,94.30
2018-04-30T02:38:00.417Z,94.30
2018-04-30T02:40:29.932Z,94.30
2018-04-30T02:42:58.023Z,94.80
2018-04-30T02:45:28.726Z,97.30
2018-04-30T02:47:56.776Z,93.90
2018-04-30T02:50:36.178Z,94.00
2018-04-30T02:53:03.861Z,98.80
2018-04-30T02:55:31.987Z,94.00
2018-04-30T02:58:00.017Z,94.00
2018-04-30T03:00:28.647Z,94.00
2018-04-30T03:02:57.086Z,93.90
2018-04-30T03:05:31.513Z,97.00
2018-04-30T03:07:59.145Z,98.50
2018-04-30T03:10:28.835Z,97.30
2018-04-30T03:12:57.290Z,93.90
2018-04-30T03:15:29.189Z,94.30
2018-04-30T03:17:57.230Z,95.30
2018-04-30T03:20:28.105Z,94.20
2018-04-30T03:22:56.152Z,94.10
2018-04-30T03:25:23.835Z,98.80
2018-04-30T03:27:52.648Z,94.90
2018-04-30T03:30:24.684Z,98.80
2018-04-30T03:32:52.371Z,99.90
2018-04-30T03:35:20.838Z,95.30
2018-04-30T03:37:49.277Z,95.60
2018-04-30T03:40:17.035Z,99.10
2018-04-30T03:42:45.081Z,95.60
2018-04-30T03:45:13.153Z,95.70
2018-04-30T03:47:40.779Z,99.90
2018-04-30T03:50:09.903Z,97.60
2018-04-30T03:52:37.970Z,99.90
2018-04-30T03:55:05.623Z,99.90
2018-04-30T03:57:34.079Z,96.60
2018-04-30T04:00:03.958Z,99.90
2018-04-30T04:02:45.911Z,97.30
2018-04-30T04:05:25.888Z,97.70
2018-04-30T04:07:53.529Z,99.90
2018-04-30T04:10:21.254Z,99.90
2018-04-30T04:12:49.297Z,97.90
2018-04-30T04:15:19.155Z,98.30
2018-04-30T04:17:46.827Z,99.90
2018-04-30T04:20:15.348Z,98.30
2018-04-30T04:22:43.761Z,98.20
2018-04-30T04:25:11.425Z,99.90
2018-04-30T04:27:40.250Z,98.30
2018-04-30T04:30:09.620Z,98.40
2018-04-30T04:32:37.808Z,99.70
2018-04-30T04:35:09.537Z,98.90
2018-04-30T04:37:38.301Z,98.70
2018-04-30T04:40:06.770Z,98.60
2018-04-30T04:42:35.191Z,98.60
2018-04-30T04:45:04.309Z,99.80
2018-04-30T04:47:32.011Z,99.90
2018-04-30T04:50:00.446Z,98.70
2018-04-30T04:52:28.894Z,98.60
2018-04-30T04:54:56.595Z,99.90
2018-04-30T04:57:24.253Z,99.90
2018-04-30T04:59:52.950Z,99.90
2018-04-30T05:02:21.445Z,98.50
2018-04-30T05:04:53.293Z,99.90
2018-04-30T05:07:21.730Z,98.60
2018-04-30T05:09:52.236Z,98.30
2018-04-30T05:12:20.285Z,98.00
2018-04-30T05:14:47.916Z,99.90
2018-04-30T05:17:15.603Z,99.90
2018-04-30T05:19:44.226Z,99.90
2018-04-30T05:22:11.912Z,99.90
2018-04-30T05:24:41.417Z,97.10
2018-04-30T05:27:09.073Z,99.90
2018-04-30T05:29:41.928Z,99.90
2018-04-30T05:32:10.389Z,96.20
2018-04-30T05:37:09.212Z,95.60
2018-04-30T05:39:38.731Z,95.50
2018-04-30T05:42:07.336Z,95.40
2018-04-30T05:44:36.798Z,95.50
2018-04-30T05:47:05.260Z,95.10
2018-04-30T05:49:36.871Z,96.70
2018-04-30T05:52:05.660Z,95.50
2018-04-30T05:54:34.886Z,95.10
2018-04-30T05:57:02.533Z,99.40
2018-04-30T05:59:31.099Z,95.30
2018-04-30T06:01:59.549Z,95.50
2018-04-30T06:04:29.006Z,95.30
2018-04-30T06:06:57.125Z,94.90
2018-04-30T06:09:25.555Z,94.70
2018-04-30T06:11:54.081Z,93.70
2018-04-30T06:14:24.450Z,93.70
2018-04-30T06:16:52.118Z,95.30
2018-04-30T06:19:21.829Z,96.90
2018-04-30T06:21:50.840Z,96.60
2018-04-30T06:26:47.954Z,91.20
2018-04-30T06:29:21.393Z,91.90
2018-04-30T06:31:49.806Z,92.00
2018-04-30T06:34:18.659Z,92.20
2018-04-30T06:36:47.063Z,92.30
2018-04-30T06:39:16.579Z,92.70
2018-04-30T06:41:45.026Z,93.20
2018-04-30T06:44:14.710Z,97.50
2018-04-30T06:46:42.403Z,98.00
2018-04-30T06:49:11.095Z,98.50
2018-04-30T06:51:38.739Z,98.50
2018-04-30T06:54:07.230Z,94.40
2018-04-30T06:56:34.887Z,99.10
2018-04-30T06:59:03.582Z,99.40
2018-04-30T07:01:32.752Z,95.20
2018-04-30T07:04:00.480Z,99.40
2018-04-30T07:06:29.951Z,95.20
2018-04-30T07:09:00.393Z,94.80
2018-04-30T07:11:28.514Z,95.70
2018-04-30T07:14:02.084Z,98.40
2018-04-30T07:16:30.583Z,94.70
2018-04-30T07:18:59.003Z,95.00
2018-04-30T07:21:27.450Z,95.10
2018-04-30T07:23:56.893Z,94.60
2018-04-30T07:26:24.581Z,98.80
2018-04-30T07:28:56.641Z,94.80
2018-04-30T07:31:25.064Z,94.90
2018-04-30T07:33:53.164Z,94.30
2018-04-30T07:36:21.566Z,94.20
2018-04-30T07:38:50.216Z,96.40
2018-04-30T07:41:17.870Z,98.60
2018-04-30T07:43:46.960Z,95.70
2018-04-30T07:46:15.400Z,93.90
2018-04-30T07:48:43.827Z,94.10
2018-04-30T07:51:11.479Z,98.50
2018-04-30T07:53:40.918Z,92.90
2018-04-30T07:56:09.328Z,92.70
2018-04-30T07:58:38.803Z,92.70
2018-04-30T08:01:06.475Z,97.10
2018-04-30T08:03:41.845Z,92.50
2018-04-30T08:06:09.552Z,97.00
2018-04-30T08:08:40.653Z,92.30
2018-04-30T08:11:09.095Z,92.30
2018-04-30T08:16:08.202Z,92.50
2018-04-30T08:18:35.917Z,97.80
2018-04-30T08:21:03.603Z,97.60
2018-04-30T08:23:31.305Z,98.50
2018-04-30T08:25:59.482Z,94.10
2018-04-30T08:28:34.961Z,94.40
2018-04-30T08:31:03.408Z,94.40
2018-04-30T08:33:32.920Z,94.80
2018-04-30T08:36:01.308Z,94.50
2018-04-30T08:38:36.376Z,94.20
2018-04-30T08:41:04.029Z,97.90
2018-04-30T08:43:35.402Z,98.20
2018-04-30T08:46:03.125Z,98.40
2018-04-30T08:48:39.354Z,93.20
2018-04-30T08:51:07.792Z,93.30
2018-04-30T08:53:36.227Z,92.60
2018-04-30T08:56:04.774Z,92.90
2018-04-30T08:58:33.256Z,92.30
2018-04-30T09:01:00.924Z,97.00
2018-04-30T09:03:36.499Z,95.40
2018-04-30T09:06:04.968Z,92.10
2018-04-30T09:08:33.396Z,92.70
2018-04-30T09:11:01.112Z,97.10
2018-04-30T09:16:01.633Z,93.70
2018-04-30T09:18:30.676Z,91.60
2018-04-30T09:20:58.329Z,96.00
2018-04-30T09:23:26.416Z,91.40
2018-04-30T09:25:54.078Z,96.30
2018-04-30T09:28:22.708Z,91.40
2018-04-30T09:30:51.133Z,91.40
2018-04-30T09:33:19.389Z,90.90
2018-04-30T09:35:48.562Z,91.20
2018-04-30T09:38:18.762Z,91.00
2018-04-30T09:40:47.155Z,90.70
2018-04-30T09:43:17.275Z,91.60
2018-04-30T09:45:45.337Z,88.90
2018-04-30T09:48:13.993Z,93.70
2018-04-30T09:50:41.664Z,94.30
2018-04-30T09:53:09.762Z,91.10
2018-04-30T09:55:37.858Z,90.30
2018-04-30T09:58:06.891Z,90.50
2018-04-30T10:00:35.322Z,90.40
2018-04-30T10:03:04.520Z,91.10
2018-04-30T10:05:33.353Z,91.20
2018-04-30T10:08:02.513Z,91.40
2018-04-30T10:10:30.601Z,93.00
2018-04-30T10:12:59.011Z,92.90
2018-04-30T10:15:27.585Z,93.50
2018-04-30T10:17:56.880Z,93.40
2018-04-30T10:20:24.960Z,94.10
2018-04-30T10:22:54.411Z,93.00
2018-04-30T10:25:22.982Z,92.70
2018-04-30T10:27:51.439Z,92.80
2018-04-30T10:30:19.071Z,96.80
2018-04-30T10:32:46.815Z,96.10
2018-04-30T10:35:15.243Z,90.80
2018-04-30T10:37:44.947Z,93.40
2018-04-30T10:40:12.627Z,95.60
2018-04-30T10:42:42.701Z,91.20
2018-04-30T10:45:11.533Z,91.00
2018-04-30T10:47:39.630Z,91.40
2018-04-30T10:50:07.680Z,91.60
2018-04-30T10:52:36.356Z,95.30
2018-04-30T10:55:04.802Z,87.80
2018-04-30T10:57:32.534Z,94.30
2018-04-30T11:00:00.578Z,88.10
2018-04-30T11:02:29.222Z,94.20
2018-04-30T11:04:57.289Z,93.90
2018-04-30T11:07:26.450Z,88.30
2018-04-30T11:09:55.353Z,89.10
2018-04-30T11:12:24.448Z,91.60
2018-04-30T11:14:52.851Z,90.00
2018-04-30T11:17:23.766Z,90.50
2018-04-30T11:19:51.415Z,95.80
2018-04-30T11:22:24.884Z,96.40
2018-04-30T11:24:52.548Z,96.20
2018-04-30T11:27:20.290Z,96.80
2018-04-30T11:29:48.752Z,91.90
2018-04-30T11:32:16.472Z,96.10
2018-04-30T11:34:44.155Z,96.50
2018-04-30T11:37:13.170Z,91.60
2018-04-30T11:39:41.625Z,88.90
2018-04-30T11:42:13.578Z,94.40
2018-04-30T11:44:41.988Z,87.90
2018-04-30T11:47:13.806Z,86.00
2018-04-30T11:49:42.602Z,85.50
2018-04-30T11:52:12.718Z,85.80
2018-04-30T11:54:41.898Z,86.30
2018-04-30T11:57:10.032Z,85.60
2018-04-30T11:59:38.512Z,86.00
2018-04-30T12:02:06.995Z,85.50
2018-04-30T12:04:35.922Z,84.80
2018-04-30T12:07:05.483Z,81.30
2018-04-30T12:09:33.915Z,81.70
2018-04-30T12:12:05.292Z,81.70
2018-04-30T12:14:34.131Z,79.90
2018-04-30T12:17:01.916Z,86.00
2018-04-30T12:19:29.582Z,82.70
2018-04-30T12:21:57.377Z,85.80
2018-04-30T12:24:25.488Z,72.80
2018-04-30T12:26:53.254Z,74.50
2018-04-30T12:29:22.540Z,69.20
2018-04-30T12:31:50.344Z,77.20
2018-04-30T12:34:18.021Z,78.20
2018-04-30T12:36:45.827Z,72.40
2018-04-30T12:39:13.617Z,76.20
2018-04-30T12:41:41.700Z,68.00
2018-04-30T12:44:09.773Z,67.10
2018-04-30T12:46:39.301Z,67.90
2018-04-30T12:49:06.981Z,77.30
2018-04-30T12:51:36.423Z,66.80
2018-04-30T12:54:04.526Z,66.10
2018-04-30T12:56:32.723Z,66.70
2018-04-30T12:59:00.781Z,70.30
2018-04-30T13:01:29.958Z,66.10
2018-04-30T13:03:57.621Z,74.30
2018-04-30T13:06:26.350Z,74.50
2018-04-30T13:08:54.797Z,65.50
2018-04-30T13:11:24.381Z,64.70
2018-04-30T13:13:52.068Z,73.00
2018-04-30T13:16:20.223Z,62.50
2018-04-30T13:18:47.950Z,69.00
2018-04-30T13:21:18.943Z,71.50
2018-04-30T13:23:46.632Z,72.40
2018-04-30T13:26:14.769Z,63.80
2018-04-30T13:28:43.208Z,65.30
2018-04-30T13:31:10.979Z,73.80
2018-04-30T13:33:38.677Z,74.30
2018-04-30T13:36:06.847Z,65.60
2018-04-30T13:38:35.271Z,61.50
2018-04-30T13:41:03.506Z,60.70
2018-04-30T13:43:32.534Z,59.60
2018-04-30T13:46:00.281Z,69.20
2018-04-30T13:48:27.937Z,69.60
2018-04-30T13:50:56.636Z,70.60
2018-04-30T13:53:25.049Z,62.20
2018-04-30T13:55:53.257Z,60.30
2018-04-30T13:58:20.922Z,69.00
2018-04-30T14:00:48.692Z,66.50
2018-04-30T14:03:16.347Z,70.80
2018-04-30T14:05:45.113Z,72.90
2018-04-30T14:08:12.798Z,66.80
2018-04-30T14:10:40.436Z,65.10
2018-04-30T14:13:08.087Z,69.70
2018-04-30T14:15:36.928Z,67.70
2018-04-30T14:18:06.086Z,57.90
2018-04-30T14:20:36.959Z,58.20
2018-04-30T14:23:04.619Z,65.20
2018-04-30T14:25:33.284Z,66.80
2018-04-30T14:28:00.947Z,65.90
2018-04-30T14:30:30.050Z,59.20
2018-04-30T14:32:57.722Z,58.10
2018-04-30T14:35:26.390Z,60.40
2018-04-30T14:37:54.091Z,59.20
2018-04-30T14:40:22.956Z,51.30
2018-04-30T14:42:51.018Z,53.70
2018-04-30T14:45:18.738Z,57.00
2018-04-30T14:47:46.387Z,58.80
2018-04-30T14:50:15.790Z,56.40
2018-04-30T14:52:43.864Z,58.00
2018-04-30T14:55:13.395Z,56.60
2018-04-30T14:57:41.077Z,65.00
2018-04-30T15:00:09.787Z,61.00
2018-04-30T15:02:38.764Z,50.70
2018-04-30T15:05:07.211Z,48.60
2018-04-30T15:07:34.893Z,53.00
2018-04-30T15:10:02.705Z,51.40
2018-04-30T15:12:31.121Z,46.80
2018-04-30T15:14:58.898Z,54.80
2018-04-30T15:17:27.692Z,50.80
2018-04-30T15:19:55.854Z,53.10
2018-04-30T15:22:23.513Z,58.20
2018-04-30T15:24:51.286Z,59.10
2018-04-30T15:27:19.060Z,54.00
2018-04-30T15:29:46.779Z,54.80
2018-04-30T15:32:14.437Z,50.80
2018-04-30T15:34:42.960Z,44.10
2018-04-30T15:37:10.605Z,46.20
2018-04-30T15:39:38.789Z,41.60
2018-04-30T15:42:06.441Z,46.30
2018-04-30T15:44:34.123Z,45.90
2018-04-30T15:47:01.793Z,46.60
2018-04-30T15:51:59.241Z,41.50
2018-04-30T15:54:27.353Z,45.80
2018-04-30T15:56:56.500Z,42.10
2018-04-30T15:59:24.180Z,44.60
2018-04-30T16:01:52.591Z,40.30
2018-04-30T16:04:21.030Z,42.50
2018-04-30T16:06:49.077Z,45.00
2018-04-30T16:09:17.201Z,45.10
2018-04-30T16:11:44.867Z,51.90
2018-04-30T16:14:14.566Z,51.90
2018-04-30T16:16:42.766Z,44.40
2018-04-30T16:19:11.186Z,42.30
2018-04-30T16:21:38.799Z,46.60
2018-04-30T16:24:07.493Z,45.30
2018-04-30T16:26:35.605Z,41.00
2018-04-30T16:29:03.325Z,44.70
2018-04-30T16:31:31.000Z,42.80
2018-04-30T16:33:59.492Z,42.30
2018-04-30T16:36:28.146Z,46.00
2018-04-30T16:39:00.737Z,46.30
2018-04-30T16:41:31.557Z,45.00
2018-04-30T16:44:01.813Z,43.10
2018-04-30T16:46:33.337Z,48.60
2018-04-30T16:49:01.240Z,49.40
2018-04-30T16:51:28.925Z,51.20
2018-04-30T16:53:57.616Z,52.90
2018-04-30T16:56:25.258Z,51.70
2018-04-30T16:58:52.953Z,59.10
2018-04-30T17:01:21.375Z,54.10
2018-04-30T17:03:52.024Z,57.00
2018-04-30T17:06:19.601Z,58.70
2018-04-30T17:08:47.245Z,59.10
2018-04-30T17:11:14.925Z,55.70
2018-04-30T17:13:42.599Z,56.30
2018-04-30T17:16:10.252Z,55.70
2018-04-30T17:18:38.718Z,49.80
2018-04-30T17:21:07.881Z,51.70
2018-04-30T17:23:37.316Z,55.20
2018-04-30T17:26:05.067Z,63.60
2018-04-30T17:28:33.749Z,64.20
2018-04-30T17:31:01.435Z,64.70
2018-04-30T17:33:29.890Z,56.80
2018-04-30T17:35:58.361Z,58.30
2018-04-30T17:38:28.830Z,59.70
2018-04-30T17:40:57.732Z,62.40
2018-04-30T17:43:27.244Z,64.80
2018-04-30T17:45:54.886Z,72.30
2018-04-30T17:48:22.718Z,70.20
2018-04-30T17:50:51.172Z,59.60
2018-04-30T17:53:25.139Z,58.60
2018-04-30T17:55:53.757Z,59.30
2018-04-30T17:58:22.382Z,70.00
2018-04-30T18:00:50.817Z,60.50
2018-04-30T18:03:18.489Z,72.70
2018-04-30T18:05:46.162Z,73.50
2018-04-30T18:08:16.152Z,63.10
2018-04-30T18:10:43.794Z,74.50
2018-04-30T18:13:12.885Z,63.70
2018-04-30T18:15:40.551Z,74.30
2018-04-30T18:18:09.153Z,64.00
2018-04-30T18:20:36.969Z,70.40
2018-04-30T18:23:05.599Z,74.00
2018-04-30T18:25:34.403Z,63.60
2018-04-30T18:28:02.441Z,63.90
2018-04-30T18:30:30.514Z,65.50
2018-04-30T18:33:00.544Z,65.20
2018-04-30T18:35:29.741Z,64.90
2018-04-30T18:37:58.844Z,65.90
2018-04-30T18:40:27.629Z,65.80
2018-04-30T18:43:00.216Z,65.80
2018-04-30T18:45:27.941Z,76.60
2018-04-30T18:47:55.596Z,76.60
2018-04-30T18:50:24.670Z,66.00
2018-04-30T18:52:54.145Z,66.60
2018-04-30T18:55:23.493Z,67.80
2018-04-30T18:57:56.104Z,77.40
2018-04-30T19:00:24.866Z,68.80
2018-04-30T19:02:53.993Z,69.10
2018-04-30T19:05:22.477Z,69.70
2018-04-30T19:07:52.567Z,74.50
2018-04-30T19:10:20.257Z,81.70
2018-04-30T19:12:55.638Z,71.30
2018-04-30T19:15:23.440Z,83.00
2018-04-30T19:17:51.780Z,71.00
2018-04-30T19:20:19.440Z,77.30
2018-04-30T19:22:47.646Z,83.80
2018-04-30T19:25:16.050Z,72.80
2018-04-30T19:27:45.501Z,73.60
2018-04-30T19:30:13.165Z,85.30
2018-04-30T19:32:40.865Z,85.20
2018-04-30T19:35:08.520Z,83.30
2018-04-30T19:37:36.270Z,86.60
2018-04-30T19:40:04.060Z,85.70
2018-04-30T19:42:32.536Z,74.70
2018-04-30T19:45:00.993Z,75.20
2018-04-30T19:47:29.507Z,75.30
2018-04-30T19:49:57.142Z,86.90
2018-04-30T19:52:25.640Z,75.40
2018-04-30T19:54:53.292Z,86.90
2018-04-30T19:57:22.124Z,86.80
2018-04-30T19:59:49.815Z,80.10
2018-04-30T20:02:20.282Z,75.20
2018-04-30T20:04:47.957Z,86.60
2018-04-30T20:07:15.986Z,77.90
2018-04-30T20:09:44.434Z,74.00
2018-04-30T20:12:13.264Z,73.80
2018-04-30T20:14:40.935Z,82.70
2018-04-30T20:17:08.600Z,85.30
2018-04-30T20:19:36.811Z,73.30
2018-04-30T20:22:05.538Z,74.10
2018-04-30T20:24:33.984Z,72.60
2018-04-30T20:27:02.955Z,72.40
2018-04-30T20:29:31.126Z,73.80
2018-04-30T20:31:59.012Z,85.40
2018-04-30T20:34:27.666Z,73.20
2018-04-30T20:36:55.441Z,83.00
2018-04-30T20:41:55.177Z,73.80
2018-04-30T20:44:23.268Z,72.70
2018-04-30T20:46:54.794Z,73.20
2018-04-30T20:49:22.465Z,85.50
2018-04-30T20:51:58.734Z,73.50
2018-04-30T20:54:26.442Z,85.70
2018-04-30T20:56:55.735Z,73.70
2018-04-30T20:59:24.267Z,74.00
2018-04-30T21:01:52.676Z,74.70
2018-04-30T21:04:21.107Z,74.40
2018-04-30T21:06:49.269Z,75.20
2018-04-30T21:09:18.441Z,75.60
2018-04-30T21:11:46.234Z,84.40
2018-04-30T21:14:14.646Z,75.80
2018-04-30T21:16:42.452Z,87.60
2018-04-30T21:19:10.108Z,88.10
2018-04-30T21:21:39.438Z,88.50
2018-04-30T21:24:07.890Z,76.50
2018-04-30T21:26:35.720Z,88.60
2018-04-30T21:29:03.481Z,88.70
2018-04-30T21:31:32.667Z,79.60
2018-04-30T21:34:00.324Z,87.70
2018-04-30T21:36:28.484Z,77.90
2018-04-30T21:41:29.347Z,78.50
2018-04-30T21:43:57.416Z,82.20
2018-04-30T21:46:25.135Z,89.20
2018-04-30T21:48:52.775Z,89.20
2018-04-30T21:51:21.295Z,77.80
2018-04-30T21:53:48.970Z,88.80
2018-04-30T21:56:19.874Z,87.50
2018-04-30T21:58:48.598Z,75.70
2018-04-30T22:01:16.377Z,85.30
2018-04-30T22:03:44.420Z,75.60
2018-04-30T22:06:12.948Z,75.10
2018-04-30T22:08:40.587Z,79.00
2018-04-30T22:11:09.828Z,73.40
2018-04-30T22:16:12.801Z,82.70
2018-04-30T22:18:40.488Z,78.80
2018-04-30T22:21:09.024Z,71.80
2018-04-30T22:23:37.039Z,69.90
2018-04-30T22:26:05.560Z,69.40
2018-04-30T22:28:33.230Z,82.20
2018-04-30T22:31:01.006Z,76.40
2018-04-30T22:33:29.051Z,72.90
2018-04-30T22:35:58.964Z,68.00
2018-04-30T22:38:27.883Z,68.40
2018-04-30T22:40:59.805Z,72.90
2018-04-30T22:43:27.609Z,80.70
2018-04-30T22:45:55.754Z,68.80
2018-04-30T22:48:23.393Z,78.00
2018-04-30T22:50:55.086Z,68.30
2018-04-30T22:53:23.113Z,69.00
2018-04-30T22:55:51.658Z,68.40
2018-04-30T22:58:19.331Z,80.00
2018-04-30T23:00:47.484Z,72.60
2018-04-30T23:03:15.125Z,78.50
2018-04-30T23:05:42.938Z,81.00
2018-04-30T23:08:11.329Z,68.50
2018-04-30T23:10:39.836Z,69.10
2018-04-30T23:13:09.010Z,69.00
2018-04-30T23:18:05.761Z,81.90
2018-04-30T23:20:34.313Z,69.40
2018-04-30T23:25:31.530Z,69.70
2018-04-30T23:27:59.928Z,69.40
2018-04-30T23:30:28.843Z,70.80
2018-04-30T23:32:56.877Z,74.40
2018-04-30T23:35:24.695Z,82.90
2018-04-30T23:37:52.753Z,68.80
2018-04-30T23:40:21.715Z,68.30
2018-04-30T23:42:49.335Z,81.00
2018-04-30T23:45:21.854Z,68.20
2018-04-30T23:47:49.908Z,68.90
2018-04-30T23:50:19.430Z,68.90
2018-04-30T23:52:47.488Z,69.50
2018-04-30T23:55:19.252Z,68.80
2018-04-30T23:57:46.889Z,82.30
